Time;durP1;ratioP1;P1;durP2;ratioP2;P2;SDS_P1;SDS_P2;PMS_P1;PMS_P2;Temp;Humidity;BMP_temperature;BMP_pressure;BME280_temperature;BME280_humidity;BME280_pressure;Samples;Min_cycle;Max_cycle;Signal;HPM_P1;HPM_P2
2022/12/07 00:01:41;;;;;;;14.90;12.90;;;;;;;1.97;78.61;99638.88;103678;1308;23895;-75
2022/12/07 00:04:10;;;;;;;19.00;14.00;;;;;;;1.95;78.21;99639.04;103404;1304;22702;-73
2022/12/07 00:06:41;;;;;;;16.40;13.00;;;;;;;1.90;78.50;99636.86;103733;1308;24317;-71
2022/12/07 00:09:11;;;;;;;15.70;13.00;;;;;;;1.97;79.10;99634.18;103305;1309;25249;-73
2022/12/07 00:11:38;;;;;;;16.70;14.10;;;;;;;1.98;78.70;99628.99;102843;1307;24332;-75
2022/12/07 00:14:31;;;;;;;18.00;14.60;;;;;;;2.04;79.14;99626.45;103124;1310;22837;-74
2022/12/07 00:16:58;;;;;;;19.10;15.60;;;;;;;2.15;79.19;99624.17;102916;1310;24412;-76
2022/12/07 00:19:25;;;;;;;18.00;15.50;;;;;;;2.19;78.76;99616.92;103117;1307;24349;-81
2022/12/07 00:21:50;;;;;;;23.00;17.50;;;;;;;2.19;78.97;99617.27;102931;1310;23986;-70
2022/12/07 00:24:17;;;;;;;19.90;16.30;;;;;;;2.20;78.75;99614.34;103027;1293;24261;-71
2022/12/07 00:26:43;;;;;;;22.50;17.10;;;;;;;2.19;78.85;99619.02;102966;1304;24251;-73
2022/12/07 00:29:22;;;;;;;23.20;18.10;;;;;;;2.28;79.48;99618.08;103570;1304;22465;-71
2022/12/07 00:31:48;;;;;;;23.30;17.00;;;;;;;2.38;79.24;99615.25;103530;1291;24425;-71
2022/12/07 00:34:19;;;;;;;25.10;18.90;;;;;;;2.37;79.01;99616.10;103657;1302;22474;-73
2022/12/07 00:36:45;;;;;;;22.40;17.30;;;;;;;2.38;79.01;99615.94;103281;1304;24364;-73
2022/12/07 00:39:12;;;;;;;22.90;17.40;;;;;;;2.33;78.91;99612.93;103576;1304;24224;-73
2022/12/07 00:41:38;;;;;;;26.30;18.10;;;;;;;2.25;78.96;99613.00;103515;1302;22469;-73
2022/12/07 00:44:05;;;;;;;24.70;18.00;;;;;;;2.16;79.13;99612.90;103626;1304;22554;-74
2022/12/07 00:46:31;;;;;;;24.40;18.30;;;;;;;2.11;79.52;99609.35;103698;1304;24306;-74
2022/12/07 00:48:58;;;;;;;27.30;19.90;;;;;;;2.09;79.83;99608.64;103666;1304;22459;-73
2022/12/07 00:51:25;;;;;;;27.30;19.90;;;;;;;2.13;80.34;99613.55;103625;1304;24379;-71
2022/12/07 00:53:52;;;;;;;27.70;20.40;;;;;;;2.20;80.22;99611.91;103413;1309;25262;-72
2022/12/07 00:56:28;;;;;;;29.60;20.70;;;;;;;2.19;79.85;99610.52;103161;1306;23071;-71
2022/12/07 00:59:00;;;;;;;28.50;20.40;;;;;;;2.11;79.90;99609.70;103354;1300;22468;-75
2022/12/07 01:01:29;;;;;;;29.40;22.20;;;;;;;2.06;80.34;99609.29;103690;1303;25360;-75
2022/12/07 01:03:55;;;;;;;29.20;21.50;;;;;;;2.08;80.62;99605.85;103546;1303;22456;-74
2022/12/07 01:06:31;;;;;;;29.10;22.50;;;;;;;2.03;80.52;99609.25;103592;1306;24487;-75
2022/12/07 01:08:58;;;;;;;30.20;20.60;;;;;;;2.02;80.82;99605.25;103887;1303;22512;-74
2022/12/07 01:11:37;;;;;;;27.70;21.40;;;;;;;2.04;80.94;99604.58;103744;1303;25874;-72
2022/12/07 01:14:03;;;;;;;29.40;21.40;;;;;;;2.01;81.09;99603.33;103607;1303;25249;-74
2022/12/07 01:16:31;;;;;;;32.10;23.30;;;;;;;2.04;81.27;99602.14;103406;1303;22534;-72
2022/12/07 01:18:58;;;;;;;31.40;22.30;;;;;;;1.98;81.16;99595.83;103569;1303;24031;-73
2022/12/07 01:21:30;;;;;;;29.10;22.00;;;;;;;1.99;81.36;99593.21;103251;1304;25288;-72
2022/12/07 01:23:59;;;;;;;28.20;20.70;;;;;;;2.01;81.40;99592.89;103936;1303;22485;-73
2022/12/07 01:26:26;;;;;;;28.90;21.50;;;;;;;2.03;81.47;99588.59;103741;1301;22556;-74
2022/12/07 01:28:55;;;;;;;25.90;19.30;;;;;;;2.03;81.53;99588.41;103720;1303;25290;-73
2022/12/07 01:31:23;;;;;;;24.90;18.00;;;;;;;2.01;81.52;99588.21;103780;1303;25301;-76
2022/12/07 01:33:55;;;;;;;25.50;19.70;;;;;;;2.01;81.77;99590.48;103863;1303;22499;-76
2022/12/07 01:36:30;;;;;;;23.80;17.10;;;;;;;1.99;81.74;99590.27;103716;1304;22767;-77
2022/12/07 01:38:59;;;;;;;21.30;17.30;;;;;;;1.99;81.89;99590.45;103424;1303;22491;-77
2022/12/07 01:41:29;;;;;;;24.10;18.00;;;;;;;2.02;82.14;99595.70;103496;1303;22534;-75
2022/12/07 01:44:29;;;;;;;25.10;19.30;;;;;;;2.07;82.47;99593.52;103724;1298;25601;-75
2022/12/07 01:47:01;;;;;;;25.10;18.30;;;;;;;2.12;82.46;99595.99;103578;1303;25334;-76
2022/12/07 01:49:48;;;;;;;23.30;17.70;;;;;;;2.20;82.44;99596.61;103553;1303;22462;-75
2022/12/07 01:52:25;;;;;;;24.60;18.40;;;;;;;2.28;82.34;99589.41;103527;1304;22479;-76
2022/12/07 01:54:57;;;;;;;23.90;18.70;;;;;;;2.32;82.11;99592.92;103624;1304;22476;-75
2022/12/07 01:57:23;;;;;;;25.70;19.80;;;;;;;2.26;81.96;99590.95;103581;1293;25528;-78
2022/12/07 01:59:52;;;;;;;25.80;18.30;;;;;;;2.26;81.96;99588.00;103563;1303;24539;-76
2022/12/07 02:02:43;;;;;;;27.10;18.90;;;;;;;2.24;81.84;99586.92;103453;1303;23250;-73
2022/12/07 02:05:11;;;;;;;26.50;19.10;;;;;;;2.16;82.02;99583.20;103605;1301;22478;-74
2022/12/07 02:07:38;;;;;;;27.70;18.30;;;;;;;2.15;82.30;99585.63;103432;1298;24331;-73
2022/12/07 02:10:31;;;;;;;20.90;15.20;;;;;;;2.19;82.45;99583.40;103589;1306;22513;-74
2022/12/07 02:13:04;;;;;;;18.70;14.60;;;;;;;2.21;82.20;99577.88;103652;1303;24330;-75
2022/12/07 02:15:42;;;;;;;23.40;15.30;;;;;;;2.20;82.18;99585.15;103326;1303;22464;-73
2022/12/07 02:18:17;;;;;;;21.40;15.20;;;;;;;2.21;82.26;99585.16;103580;1303;24251;-75
2022/12/07 02:21:19;;;;;;;20.10;14.90;;;;;;;2.18;82.01;99579.23;103626;1303;22634;-73
2022/12/07 02:24:23;;;;;;;18.00;13.90;;;;;;;2.18;82.24;99581.13;103474;1304;25413;-74
2022/12/07 02:27:11;;;;;;;17.10;13.40;;;;;;;2.17;82.17;99581.65;103550;1303;23207;-76
2022/12/07 02:29:43;;;;;;;16.10;12.80;;;;;;;2.21;82.42;99579.60;103646;1303;25335;-74
2022/12/07 02:32:32;;;;;;;18.60;14.10;;;;;;;2.21;82.15;99574.23;103605;1303;25302;-73
2022/12/07 02:35:07;;;;;;;18.20;13.40;;;;;;;2.21;82.50;99578.90;103614;1296;24399;-74
2022/12/07 02:37:39;;;;;;;18.30;13.70;;;;;;;2.27;82.72;99574.98;103608;1298;25554;-73
2022/12/07 02:40:14;;;;;;;18.30;13.20;;;;;;;2.31;82.58;99576.58;103600;1303;22472;-74
2022/12/07 02:42:45;;;;;;;18.20;12.60;;;;;;;2.32;82.43;99575.55;103567;1303;26624;-74
2022/12/07 02:45:17;;;;;;;16.00;12.10;;;;;;;2.40;82.80;99573.56;103609;1303;25759;-74
2022/12/07 02:47:47;;;;;;;13.90;11.60;;;;;;;2.46;82.55;99572.59;103498;1303;184304;-73
2022/12/07 02:50:13;;;;;;;14.90;11.00;;;;;;;2.45;82.19;99568.40;103476;1304;24263;-74
2022/12/07 02:52:39;;;;;;;12.70;9.90;;;;;;;2.47;82.34;99566.16;103599;1303;24431;-74
2022/12/07 02:55:09;;;;;;;13.10;10.30;;;;;;;2.43;82.04;99565.42;103611;1303;22478;-73
2022/12/07 02:57:50;;;;;;;13.20;9.90;;;;;;;2.41;82.22;99569.23;103446;1303;24305;-77
2022/12/07 03:00:19;;;;;;;9.30;7.80;;;;;;;2.49;82.56;99566.88;103534;1302;22537;-72
2022/12/07 03:02:56;;;;;;;10.30;8.70;;;;;;;2.46;81.90;99566.67;103315;1303;22662;-72
2022/12/07 03:05:37;;;;;;;10.50;9.40;;;;;;;2.39;81.90;99567.48;103399;1303;22468;-72
2022/12/07 03:08:22;;;;;;;9.50;8.00;;;;;;;2.35;82.14;99571.06;103417;1303;22590;-72
2022/12/07 03:10:48;;;;;;;10.00;8.50;;;;;;;2.31;82.07;99568.77;103325;1303;24263;-72
2022/12/07 03:13:23;;;;;;;8.50;7.60;;;;;;;2.25;82.00;99563.84;103431;1303;22743;-73
2022/12/07 03:16:08;;;;;;;9.00;7.60;;;;;;;2.24;82.21;99563.13;103359;1303;22874;-72
2022/12/07 03:18:45;;;;;;;8.90;7.70;;;;;;;2.26;82.14;99560.02;103368;1295;22469;-72
2022/12/07 03:21:20;;;;;;;8.70;7.50;;;;;;;2.22;82.07;99561.20;103373;1303;22468;-76
2022/12/07 03:23:53;;;;;;;9.60;8.10;;;;;;;2.18;82.02;99561.33;103603;1301;22958;-74
2022/12/07 03:26:24;;;;;;;9.60;7.20;;;;;;;2.17;82.15;99558.89;103547;1303;25337;-74
2022/12/07 03:28:57;;;;;;;9.00;7.20;;;;;;;2.13;82.01;99560.73;103293;1304;25461;-73
2022/12/07 03:31:31;;;;;;;9.50;8.10;;;;;;;2.13;82.00;99555.01;103411;1303;22468;-73
2022/12/07 03:34:11;;;;;;;8.80;7.50;;;;;;;2.11;82.02;99554.12;103412;1303;22533;-74
2022/12/07 03:37:00;;;;;;;9.90;7.80;;;;;;;2.06;81.84;99546.92;103594;1302;22462;-73
2022/12/07 03:39:34;;;;;;;10.70;7.70;;;;;;;2.05;82.08;99547.45;103357;1303;24782;-74
2022/12/07 03:42:04;;;;;;;10.40;8.00;;;;;;;2.09;82.34;99544.54;103582;1302;24060;-77
2022/12/07 03:44:31;;;;;;;10.20;8.20;;;;;;;2.15;82.31;99542.70;103679;1303;24288;-77
2022/12/07 03:47:24;;;;;;;9.70;8.00;;;;;;;2.17;82.02;99537.69;103321;1304;22756;-75
2022/12/07 03:50:10;;;;;;;10.20;8.50;;;;;;;2.16;82.18;99536.46;103681;1303;23323;-71
2022/12/07 03:52:42;;;;;;;10.00;8.30;;;;;;;2.16;82.18;99531.77;103378;1303;23890;-76
2022/12/07 03:55:16;;;;;;;9.10;7.60;;;;;;;2.16;82.04;99527.95;103659;1303;23876;-74
2022/12/07 03:57:46;;;;;;;7.50;6.50;;;;;;;2.09;81.67;99527.34;103533;1304;25800;-76
2022/12/07 04:00:14;;;;;;;8.80;7.00;;;;;;;2.02;81.81;99530.05;103627;1303;24482;-78
2022/12/07 04:02:41;;;;;;;9.60;7.80;;;;;;;2.03;82.22;99526.41;103623;1299;23873;-74
2022/12/07 04:05:08;;;;;;;7.60;6.70;;;;;;;2.04;82.03;99528.16;103548;1303;22460;-76
2022/12/07 04:07:34;;;;;;;8.40;6.50;;;;;;;1.98;81.88;99525.14;103399;1303;23908;-72
2022/12/07 04:10:00;;;;;;;7.50;6.70;;;;;;;1.93;82.04;99529.27;103239;1303;24288;-74
2022/12/07 04:12:27;;;;;;;7.50;5.70;;;;;;;1.91;82.07;99522.80;103499;1303;22483;-72
2022/12/07 04:14:53;;;;;;;7.50;6.40;;;;;;;1.86;82.15;99520.83;103514;1306;22850;-74
2022/12/07 04:17:19;;;;;;;7.20;6.10;;;;;;;1.90;82.64;99525.05;103436;1304;25325;-75
2022/12/07 04:19:46;;;;;;;8.30;6.40;;;;;;;1.97;82.66;99523.74;103265;1304;22464;-73
2022/12/07 04:22:12;;;;;;;6.80;5.50;;;;;;;2.04;82.66;99520.70;103398;1303;22580;-73
2022/12/07 04:24:38;;;;;;;6.30;5.70;;;;;;;2.05;81.97;99520.70;103565;1302;23781;-73
2022/12/07 04:27:04;;;;;;;8.30;5.90;;;;;;;1.99;81.90;99521.85;103626;1302;22469;-73
2022/12/07 04:29:30;;;;;;;8.10;6.50;;;;;;;1.95;81.98;99521.83;103683;1303;24279;-72
2022/12/07 04:31:57;;;;;;;6.90;6.20;;;;;;;1.92;81.88;99521.05;103712;1303;24529;-72
2022/12/07 04:34:23;;;;;;;7.20;6.00;;;;;;;1.88;82.12;99522.75;103653;1303;24261;-72
2022/12/07 04:36:49;;;;;;;7.80;6.40;;;;;;;1.82;81.92;99515.04;103477;1303;24919;-72
2022/12/07 04:39:31;;;;;;;8.00;6.20;;;;;;;1.74;82.02;99510.96;103489;1303;22474;-71
2022/12/07 04:41:58;;;;;;;8.30;6.30;;;;;;;1.67;82.19;99513.48;103575;1303;22507;-71
2022/12/07 04:44:25;;;;;;;8.20;6.60;;;;;;;1.66;82.49;99515.19;103562;1302;22468;-76
2022/12/07 04:46:53;;;;;;;6.80;5.80;;;;;;;1.67;82.57;99514.51;103692;1303;22450;-71
2022/12/07 04:49:19;;;;;;;6.50;5.90;;;;;;;1.67;82.52;99516.42;103352;1295;22442;-73
2022/12/07 04:51:46;;;;;;;7.30;6.00;;;;;;;1.68;82.54;99519.21;103368;1303;22728;-72
2022/12/07 04:54:13;;;;;;;8.20;6.70;;;;;;;1.64;82.26;99521.59;103590;1303;22463;-75
2022/12/07 04:56:40;;;;;;;6.70;6.00;;;;;;;1.60;82.41;99515.64;103566;1303;23458;-73
2022/12/07 04:59:08;;;;;;;9.00;7.30;;;;;;;1.55;82.38;99513.83;103647;1303;25373;-72
2022/12/07 05:01:34;;;;;;;6.80;5.40;;;;;;;1.48;82.51;99509.57;103723;1303;24282;-72
2022/12/07 05:04:02;;;;;;;7.30;5.90;;;;;;;1.42;82.56;99512.44;103652;1301;22727;-73
2022/12/07 05:06:28;;;;;;;8.70;6.10;;;;;;;1.40;82.70;99514.33;103651;1301;24885;-72
2022/12/07 05:08:54;;;;;;;7.30;6.40;;;;;;;1.35;82.78;99514.26;103597;1301;24265;-71
2022/12/07 05:11:39;;;;;;;8.40;6.80;;;;;;;1.35;83.10;99510.45;103699;1301;22459;-74
2022/12/07 05:14:17;;;;;;;6.50;5.50;;;;;;;1.41;83.15;99505.67;103864;1302;22587;-75
2022/12/07 05:16:45;;;;;;;7.10;5.90;;;;;;;1.41;82.84;99501.50;103978;1303;22528;-76
2022/12/07 05:19:11;;;;;;;6.20;5.60;;;;;;;1.42;82.94;99501.67;103933;1302;22470;-75
2022/12/07 05:21:39;;;;;;;8.00;7.00;;;;;;;1.39;82.74;99502.17;103708;1303;24292;-72
2022/12/07 05:24:06;;;;;;;7.30;6.60;;;;;;;1.35;82.90;99498.63;103564;1296;25320;-75
2022/12/07 05:26:32;;;;;;;7.60;6.70;;;;;;;1.32;82.94;99499.30;103658;1302;23869;-76
2022/12/07 05:28:59;;;;;;;7.70;6.70;;;;;;;1.30;82.96;99498.06;103604;1303;24807;-72
2022/12/07 05:31:26;;;;;;;6.20;5.60;;;;;;;1.29;82.99;99499.25;103546;1302;22558;-75
2022/12/07 05:33:53;;;;;;;7.60;5.70;;;;;;;1.27;83.06;99496.79;103394;1303;22679;-73
2022/12/07 05:36:19;;;;;;;8.20;7.40;;;;;;;1.28;83.15;99495.58;103484;1303;23519;-76
2022/12/07 05:38:46;;;;;;;7.10;6.00;;;;;;;1.27;83.20;99493.15;103560;1303;23173;-76
2022/12/07 05:44:00;;;;;;;7.30;5.80;;;;;;;1.27;83.10;99495.39;103671;1303;22868;-75
2022/12/07 05:46:26;;;;;;;7.10;5.40;;;;;;;1.26;83.11;99502.16;103548;1303;25447;-71
2022/12/07 05:48:53;;;;;;;6.60;5.70;;;;;;;1.30;83.50;99499.09;103488;1296;23902;-78
2022/12/07 05:51:20;;;;;;;8.10;6.10;;;;;;;1.29;82.97;99501.15;103779;1303;22556;-74
2022/12/07 05:53:46;;;;;;;6.00;5.40;;;;;;;1.19;83.02;99501.89;103479;1296;24426;-74
2022/12/07 05:56:13;;;;;;;6.90;6.20;;;;;;;1.21;83.42;99500.00;103566;1281;25554;-75
2022/12/07 06:01:24;;;;;;;5.30;4.60;;;;;;;1.25;83.05;99499.71;103607;1303;22565;-75
2022/12/07 06:03:51;;;;;;;7.30;5.80;;;;;;;1.14;83.02;99504.08;103546;1303;22987;-75
2022/12/07 06:06:17;;;;;;;6.80;6.10;;;;;;;1.13;83.32;99501.80;103546;1297;25259;-75
2022/12/07 06:08:43;;;;;;;6.30;5.40;;;;;;;1.13;83.37;99498.85;103394;1300;22490;-74
2022/12/07 06:13:54;;;;;;;6.20;5.60;;;;;;;1.11;83.41;99501.27;103356;1306;25277;-76
2022/12/07 06:16:21;;;;;;;6.50;5.30;;;;;;;1.12;83.41;99497.96;103551;1303;24300;-73
2022/12/07 06:18:47;;;;;;;7.30;5.50;;;;;;;1.09;83.44;99503.13;103490;1286;22461;-79
2022/12/07 06:21:14;;;;;;;5.30;4.80;;;;;;;1.07;83.30;99501.18;103730;1303;24248;-78
2022/12/07 06:23:40;;;;;;;5.10;4.50;;;;;;;1.11;83.54;99501.42;103688;1303;22468;-77
2022/12/07 06:26:06;;;;;;;7.10;5.30;;;;;;;1.05;83.13;99497.52;103635;1303;25306;-78
2022/12/07 06:28:32;;;;;;;9.60;5.50;;;;;;;1.02;83.32;99496.95;103807;1303;22440;-78
2022/12/07 06:31:00;;;;;;;5.80;5.10;;;;;;;0.98;83.42;99492.56;103603;1303;22459;-80
2022/12/07 06:33:27;;;;;;;5.40;4.90;;;;;;;1.00;83.62;99491.38;103632;1302;25352;-78
2022/12/07 06:35:53;;;;;;;7.20;5.50;;;;;;;1.03;83.63;99491.58;103475;1303;22464;-77
2022/12/07 06:38:20;;;;;;;6.90;5.30;;;;;;;1.03;83.52;99492.46;103737;1302;23155;-78
2022/12/07 06:40:46;;;;;;;5.70;4.60;;;;;;;0.98;83.58;99493.42;103801;1303;22548;-80
2022/12/07 06:43:12;;;;;;;6.20;4.80;;;;;;;0.99;83.48;99493.79;103721;1303;25518;-80
2022/12/07 06:45:38;;;;;;;6.60;4.90;;;;;;;0.96;83.51;99492.70;103601;1303;23902;-80
2022/12/07 06:48:05;;;;;;;6.80;5.10;;;;;;;0.94;83.56;99491.45;103816;1303;25191;-80
2022/12/07 06:50:31;;;;;;;6.00;5.20;;;;;;;0.92;83.58;99493.32;103447;1303;22585;-79
2022/12/07 06:52:57;;;;;;;6.30;5.10;;;;;;;0.86;83.53;99492.20;103708;1303;22507;-80
2022/12/07 06:55:24;;;;;;;6.20;5.00;;;;;;;0.86;83.86;99496.00;103602;1302;24531;-83
2022/12/07 06:57:50;;;;;;;6.70;5.40;;;;;;;0.86;83.91;99491.50;103531;1298;22589;-82
2022/12/07 07:00:16;;;;;;;6.00;5.40;;;;;;;0.87;83.78;99490.48;103889;1301;25327;-79
2022/12/07 07:02:48;;;;;;;5.60;4.90;;;;;;;0.85;83.68;99490.80;103226;1309;22488;-82
2022/12/07 07:05:16;;;;;;;6.30;5.40;;;;;;;0.83;83.94;99490.59;103147;1309;22472;-83
2022/12/07 07:07:42;;;;;;;7.10;5.00;;;;;;;0.82;84.06;99493.34;103154;1309;22529;-84
2022/12/07 07:10:28;;;;;;;6.70;5.50;;;;;;;0.85;83.98;99495.82;103320;1309;25997;-81
2022/12/07 07:12:54;;;;;;;5.50;4.80;;;;;;;0.84;84.04;99498.05;103080;1302;22483;-81
2022/12/07 07:15:23;;;;;;;6.90;5.50;;;;;;;0.84;84.24;99495.45;103402;1309;22508;-80
2022/12/07 07:17:50;;;;;;;7.70;6.00;;;;;;;0.83;84.17;99492.31;103051;1304;24095;-79
2022/12/07 07:20:16;;;;;;;6.10;5.20;;;;;;;0.81;84.16;99493.33;103288;1303;22810;-80
2022/12/07 07:22:42;;;;;;;5.30;4.80;;;;;;;0.82;84.30;99491.08;103847;1294;22458;-81
2022/12/07 07:25:08;;;;;;;6.90;5.40;;;;;;;0.78;84.19;99488.41;103959;1303;22955;-79
2022/12/07 07:27:35;;;;;;;7.00;6.00;;;;;;;0.77;84.36;99486.32;103858;1303;22560;-83
2022/12/07 07:30:01;;;;;;;6.10;4.90;;;;;;;0.78;84.50;99488.95;104030;1302;22458;-79
2022/12/07 07:32:27;;;;;;;5.60;5.00;;;;;;;0.81;84.54;99490.04;104274;1302;22452;-80
2022/12/07 07:34:54;;;;;;;8.10;5.80;;;;;;;0.81;84.40;99493.48;104033;1303;24257;-81
2022/12/07 07:37:21;;;;;;;6.60;5.70;;;;;;;0.82;84.65;99495.08;104124;1302;25389;-81
2022/12/07 07:39:47;;;;;;;7.90;6.20;;;;;;;0.85;84.63;99495.11;103875;1303;22578;-81
2022/12/07 07:42:15;;;;;;;6.00;5.20;;;;;;;0.91;84.76;99496.09;103723;1303;22460;-81
2022/12/07 07:44:42;;;;;;;6.10;5.50;;;;;;;0.88;84.35;99493.11;103952;1303;22454;-79
2022/12/07 07:47:08;;;;;;;7.20;6.30;;;;;;;0.86;84.44;99494.61;103773;1303;24233;-81
2022/12/07 07:49:34;;;;;;;5.90;5.30;;;;;;;0.85;84.60;99494.61;103739;1303;22634;-82
2022/12/07 07:52:00;;;;;;;6.10;5.10;;;;;;;0.84;84.56;99492.85;103788;1279;25566;-81
2022/12/07 07:54:26;;;;;;;6.30;5.20;;;;;;;0.83;84.69;99494.91;103931;1303;24245;-83
2022/12/07 07:56:53;;;;;;;6.60;5.20;;;;;;;0.80;84.73;99490.02;103646;1303;24325;-81
2022/12/07 07:59:19;;;;;;;8.20;6.20;;;;;;;0.80;84.86;99495.40;103960;1302;22492;-82
2022/12/07 08:01:45;;;;;;;8.60;6.40;;;;;;;0.84;85.02;99499.61;103534;1303;22592;-83
2022/12/07 08:04:11;;;;;;;5.90;5.30;;;;;;;0.86;84.98;99491.50;103556;1290;24332;-79
2022/12/07 08:06:37;;;;;;;7.50;5.80;;;;;;;0.86;84.92;99493.58;103773;1302;22452;-80
2022/12/07 08:09:05;;;;;;;7.10;6.20;;;;;;;0.89;84.91;99496.40;103772;1303;24247;-80
2022/12/07 08:11:31;;;;;;;8.80;6.30;;;;;;;0.91;85.04;99499.73;103475;1303;22506;-78
2022/12/07 08:13:58;;;;;;;8.90;6.50;;;;;;;0.93;85.13;99495.59;103815;1301;22652;-80
2022/12/07 08:16:24;;;;;;;7.90;6.20;;;;;;;0.97;85.23;99496.52;103923;1303;22468;-80
2022/12/07 08:18:50;;;;;;;8.60;6.70;;;;;;;1.02;85.47;99498.51;103516;1303;25272;-80
2022/12/07 08:21:17;;;;;;;6.90;6.00;;;;;;;1.10;85.32;99501.59;103542;1303;22896;-79
2022/12/07 08:23:44;;;;;;;7.60;6.40;;;;;;;1.07;85.10;99507.11;103685;1303;24304;-80
2022/12/07 08:26:13;;;;;;;9.00;7.10;;;;;;;1.07;85.11;99505.86;103338;1307;24322;-80
2022/12/07 08:28:40;;;;;;;10.30;7.60;;;;;;;1.08;85.34;99503.45;103347;1307;22487;-80
2022/12/07 08:31:11;;;;;;;9.40;7.80;;;;;;;1.07;85.47;99506.05;103390;1307;22528;-78
2022/12/07 08:33:37;;;;;;;9.40;6.90;;;;;;;1.11;85.47;99511.48;103268;1307;22740;-81
2022/12/07 08:36:09;;;;;;;9.30;7.60;;;;;;;1.15;85.51;99513.62;103419;1307;22531;-81
2022/12/07 08:38:37;;;;;;;11.80;8.00;;;;;;;1.18;85.57;99513.66;103594;1307;26554;-79
2022/12/07 08:41:03;;;;;;;11.80;9.10;;;;;;;1.17;85.53;99519.20;103878;1307;24227;-78
2022/12/07 08:43:30;;;;;;;12.80;8.70;;;;;;;1.15;85.74;99514.14;103859;1292;24259;-78
2022/12/07 08:46:21;;;;;;;11.70;8.70;;;;;;;1.14;85.93;99514.65;103718;1303;24261;-79
2022/12/07 08:49:29;;;;;;;11.70;9.10;;;;;;;1.21;86.17;99514.23;103851;1295;22467;-79
2022/12/07 08:51:55;;;;;;;10.30;8.80;;;;;;;1.21;85.99;99507.46;103553;1303;24246;-80
2022/12/07 08:54:22;;;;;;;11.20;9.00;;;;;;;1.18;86.02;99515.91;103653;1303;23073;-81
2022/12/07 08:56:51;;;;;;;13.60;10.60;;;;;;;1.17;86.15;99518.85;103911;1303;22469;-83
2022/12/07 08:59:26;;;;;;;12.90;9.50;;;;;;;1.25;86.43;99514.11;104114;1301;22865;-78
2022/12/07 09:01:53;;;;;;;14.20;10.50;;;;;;;1.32;86.39;99518.03;103941;1303;22409;-79
2022/12/07 09:04:20;;;;;;;15.00;10.90;;;;;;;1.40;86.29;99515.02;104261;1303;24371;-80
2022/12/07 09:06:47;;;;;;;13.50;10.60;;;;;;;1.46;86.24;99510.59;103823;1288;24368;-79
2022/12/07 09:09:13;;;;;;;14.60;10.80;;;;;;;1.50;86.10;99503.36;103709;1303;22469;-81
2022/12/07 09:11:40;;;;;;;15.80;10.70;;;;;;;1.54;85.96;99500.28;103804;1304;24948;-79
2022/12/07 09:14:07;;;;;;;14.10;10.50;;;;;;;1.62;85.88;99499.17;104024;1303;22522;-78
2022/12/07 09:16:33;;;;;;;14.90;10.60;;;;;;;1.69;85.73;99500.13;104313;1301;23078;-80
2022/12/07 09:19:00;;;;;;;15.30;11.60;;;;;;;1.70;85.43;99493.54;103756;1303;22723;-79
2022/12/07 09:21:27;;;;;;;15.70;11.30;;;;;;;1.71;85.27;99495.30;103982;1303;24246;-82
2022/12/07 09:23:54;;;;;;;15.60;11.30;;;;;;;1.74;85.44;99489.42;103759;1303;24800;-80
2022/12/07 09:26:20;;;;;;;15.30;11.10;;;;;;;1.80;85.23;99490.36;103805;1303;24613;-80
2022/12/07 09:28:47;;;;;;;15.20;12.30;;;;;;;1.87;85.27;99489.23;103816;1303;24171;-81
2022/12/07 09:31:13;;;;;;;15.10;11.70;;;;;;;1.88;84.93;99481.95;103810;1303;22721;-82
2022/12/07 09:33:59;;;;;;;14.60;11.20;;;;;;;1.92;84.83;99479.05;103471;1303;22482;-79
2022/12/07 09:36:27;;;;;;;15.70;11.60;;;;;;;1.96;84.79;99483.79;103546;1302;22452;-80
2022/12/07 09:38:54;;;;;;;16.20;11.30;;;;;;;2.03;84.72;99483.86;103864;1303;22454;-80
2022/12/07 09:41:21;;;;;;;18.20;12.00;;;;;;;2.05;84.41;99480.94;103767;1299;24275;-79
2022/12/07 09:43:48;;;;;;;16.70;12.60;;;;;;;2.06;84.30;99482.85;103498;1303;24350;-81
2022/12/07 09:46:17;;;;;;;17.20;11.70;;;;;;;2.09;84.30;99481.66;103440;1303;25677;-80
2022/12/07 09:48:45;;;;;;;16.40;12.00;;;;;;;2.10;83.99;99479.95;103426;1303;22868;-80
2022/12/07 09:51:23;;;;;;;14.20;10.80;;;;;;;2.12;83.94;99478.73;103411;1302;22538;-79
2022/12/07 09:53:54;;;;;;;18.70;12.60;;;;;;;2.11;83.65;99471.77;103572;1303;22468;-79
2022/12/07 09:56:22;;;;;;;13.60;11.30;;;;;;;2.13;83.95;99474.06;103559;1302;24246;-81
2022/12/07 09:58:49;;;;;;;16.20;10.70;;;;;;;2.14;83.53;99470.24;103865;1302;22505;-81
2022/12/07 10:01:19;;;;;;;15.70;12.40;;;;;;;2.14;83.71;99473.37;103640;1301;25217;-80
2022/12/07 10:04:01;;;;;;;15.40;11.60;;;;;;;2.20;83.58;99471.36;103471;1303;25296;-80
2022/12/07 10:06:28;;;;;;;15.40;11.30;;;;;;;2.18;83.08;99469.43;103759;1303;25197;-80
2022/12/07 10:08:54;;;;;;;16.30;11.30;;;;;;;2.18;83.05;99466.65;103754;1303;25205;-80
2022/12/07 10:11:20;;;;;;;17.10;10.60;;;;;;;2.18;82.55;99468.58;103798;1303;25324;-80
2022/12/07 10:13:53;;;;;;;16.70;10.90;;;;;;;2.18;82.36;99462.83;103493;1303;22512;-79
2022/12/07 10:16:26;;;;;;;16.60;11.00;;;;;;;2.18;82.31;99466.65;103726;1303;23870;-81
2022/12/07 10:18:52;;;;;;;16.10;11.00;;;;;;;2.21;82.24;99466.51;103451;1302;22513;-78
2022/12/07 10:21:24;;;;;;;18.00;13.00;;;;;;;2.20;81.89;99467.36;103610;1289;22465;-80
2022/12/07 10:24:12;;;;;;;15.10;10.80;;;;;;;2.21;81.98;99465.98;103610;1303;22506;-80
2022/12/07 10:26:49;;;;;;;20.80;12.00;;;;;;;2.17;81.71;99461.08;103843;1303;22466;-82
2022/12/07 10:29:27;;;;;;;17.00;11.40;;;;;;;2.18;81.94;99456.23;103486;1303;25289;-80
2022/12/07 10:32:03;;;;;;;15.70;11.20;;;;;;;2.24;82.43;99457.84;103547;1302;25505;-79
2022/12/07 10:34:36;;;;;;;13.50;10.40;;;;;;;2.30;81.96;99461.20;103514;1290;22481;-79
2022/12/07 10:37:08;;;;;;;15.70;10.80;;;;;;;2.24;81.26;99460.45;103719;1297;22495;-79
2022/12/07 10:40:01;;;;;;;14.80;10.20;;;;;;;2.18;81.08;99458.13;103829;1301;22691;-78
2022/12/07 10:42:29;;;;;;;10.40;7.70;;;;;;;2.19;81.20;99460.91;103644;1303;22926;-79
2022/12/07 10:45:15;;;;;;;14.60;10.90;;;;;;;2.20;81.10;99457.46;103493;1303;23900;-79
2022/12/07 10:48:11;;;;;;;14.70;10.50;;;;;;;2.22;81.07;99461.99;103556;1303;22468;-82
2022/12/07 10:51:10;;;;;;;12.90;9.50;;;;;;;2.24;81.41;99457.32;103634;1290;22838;-79
2022/12/07 10:54:16;;;;;;;12.10;9.70;;;;;;;2.39;81.62;99460.07;103918;1303;22991;-79
2022/12/07 10:56:54;;;;;;;13.10;10.20;;;;;;;2.39;80.51;99458.50;103069;1309;24266;-82
2022/12/07 10:59:47;;;;;;;14.40;11.80;;;;;;;2.33;80.57;99460.54;103699;1302;22512;-84
2022/12/07 11:02:44;;;;;;;10.90;8.80;;;;;;;2.32;80.83;99460.17;103400;1303;22468;-83
2022/12/07 11:05:47;;;;;;;12.80;10.40;;;;;;;2.33;80.65;99456.02;103660;1303;23771;-84
2022/12/07 11:08:20;;;;;;;13.80;10.90;;;;;;;2.35;80.85;99452.73;103949;1303;23282;-81
2022/12/07 11:10:55;;;;;;;13.80;11.30;;;;;;;2.37;80.96;99453.64;103945;1303;22647;-81
2022/12/07 11:13:24;;;;;;;13.50;10.50;;;;;;;2.40;80.68;99456.44;104224;1303;23877;-91
2022/12/07 11:16:30;;;;;;;13.10;10.40;;;;;;;2.38;80.45;99449.98;104942;1303;22440;-80
2022/12/07 11:19:14;;;;;;;14.30;10.50;;;;;;;2.43;80.67;99453.50;103181;1309;22471;-83
2022/12/07 11:21:58;;;;;;;10.80;9.60;;;;;;;2.48;80.70;99457.38;103829;1303;22509;-82
2022/12/07 11:24:41;;;;;;;12.80;11.30;;;;;;;2.53;80.82;99453.93;104060;1302;22466;-81
2022/12/07 11:27:37;;;;;;;11.20;10.00;;;;;;;2.59;80.59;99447.20;104109;1303;22527;-81
2022/12/07 11:30:23;;;;;;;14.10;10.50;;;;;;;2.62;80.50;99450.36;103911;1303;22510;-82
2022/12/07 11:33:16;;;;;;;10.90;9.80;;;;;;;2.70;80.82;99452.16;103879;1303;22473;-81
2022/12/07 11:35:54;;;;;;;12.00;10.80;;;;;;;2.71;80.14;99445.39;103733;1303;22607;-80
2022/12/07 11:38:48;;;;;;;10.40;9.30;;;;;;;2.68;80.05;99441.73;103734;1302;22472;-83
2022/12/07 11:41:22;;;;;;;11.10;10.00;;;;;;;2.66;80.10;99444.30;103762;1303;23922;-82
2022/12/07 11:44:00;;;;;;;11.50;10.30;;;;;;;2.63;79.86;99438.38;103804;1303;22725;-80
2022/12/07 11:46:44;;;;;;;11.60;10.40;;;;;;;2.67;79.83;99440.85;103942;1302;24366;-82
2022/12/07 11:49:21;;;;;;;12.90;10.70;;;;;;;2.69;79.86;99436.68;103755;1302;22470;-81
2022/12/07 11:51:52;;;;;;;12.20;10.80;;;;;;;2.73;80.01;99437.40;103395;1303;24295;-81
2022/12/07 11:54:25;;;;;;;13.00;10.90;;;;;;;2.76;80.03;99432.39;103701;1303;22537;-81